createdAt,value
2023-01-19T00:01:56.444Z,10.89
2023-01-19T00:04:26.979Z,10.82
2023-01-19T00:06:57.483Z,10.86
2023-01-19T00:09:28.325Z,10.92
2023-01-19T00:11:58.848Z,10.84
2023-01-19T00:14:31.960Z,10.81
2023-01-19T00:17:03.471Z,10.88
2023-01-19T00:19:33.989Z,10.83
2023-01-19T00:22:06.326Z,10.81
2023-01-19T00:24:37.120Z,10.88
2023-01-19T00:27:07.773Z,10.85
2023-01-19T00:29:44.092Z,10.49
2023-01-19T00:32:14.682Z,10.10
2023-01-19T00:34:49.718Z,9.74
2023-01-19T00:37:20.983Z,9.44
2023-01-19T00:39:51.614Z,9.29
2023-01-19T00:42:34.352Z,9.14
2023-01-19T00:45:08.265Z,9.19
2023-01-19T00:47:39.502Z,9.14
2023-01-19T00:50:12.016Z,9.15
2023-01-19T00:52:42.697Z,9.24
2023-01-19T00:55:14.734Z,9.35
2023-01-19T00:57:46.148Z,9.41
2023-01-19T01:00:21.841Z,9.46
2023-01-19T01:02:54.336Z,9.48
2023-01-19T01:05:24.899Z,9.60
2023-01-19T01:07:55.396Z,9.77
2023-01-19T01:10:28.477Z,9.97
2023-01-19T01:12:59.214Z,10.16
2023-01-19T01:15:32.596Z,10.38
2023-01-19T01:18:03.457Z,10.56
2023-01-19T01:20:35.058Z,10.72
2023-01-19T01:23:05.704Z,10.83
2023-01-19T01:25:38.177Z,10.97
2023-01-19T01:28:09.985Z,11.08
2023-01-19T01:30:44.345Z,11.17
2023-01-19T01:33:14.860Z,11.24
2023-01-19T01:35:45.446Z,11.29
2023-01-19T01:38:16.103Z,11.36
2023-01-19T01:40:47.305Z,11.40
2023-01-19T01:43:20.706Z,11.42
2023-01-19T01:45:55.189Z,11.46
2023-01-19T01:48:33.674Z,11.47
2023-01-19T01:51:21.709Z,11.48
2023-01-19T01:53:58.611Z,11.51
2023-01-19T01:56:34.318Z,11.51
2023-01-19T01:59:08.496Z,11.49
2023-01-19T02:01:54.673Z,11.52
2023-01-19T02:04:26.947Z,11.50
2023-01-19T02:07:09.799Z,11.51
2023-01-19T02:09:52.970Z,11.50
2023-01-19T02:12:36.312Z,11.51
2023-01-19T02:15:07.711Z,11.50
2023-01-19T02:17:41.050Z,11.50
2023-01-19T02:20:13.456Z,11.45
2023-01-19T02:22:50.200Z,11.50
2023-01-19T02:25:23.683Z,11.47
2023-01-19T02:27:56.613Z,11.49
2023-01-19T02:30:28.077Z,11.50
2023-01-19T02:32:59.132Z,11.50
2023-01-19T02:35:30.478Z,11.50
2023-01-19T02:38:01.873Z,11.52
2023-01-19T02:40:35.308Z,11.52
2023-01-19T02:43:09.005Z,11.51
2023-01-19T02:45:41.755Z,11.52
2023-01-19T02:48:12.435Z,11.52
2023-01-19T02:50:49.655Z,11.50
2023-01-19T02:53:37.131Z,11.48
2023-01-19T02:56:27.772Z,11.53
2023-01-19T02:59:07.307Z,11.55
2023-01-19T03:01:49.808Z,11.52
2023-01-19T03:04:31.783Z,11.51
2023-01-19T03:07:11.383Z,11.50
2023-01-19T03:09:49.633Z,11.49
2023-01-19T03:12:31.357Z,11.48
2023-01-19T03:15:06.675Z,11.43
2023-01-19T03:17:38.934Z,11.45
2023-01-19T03:20:13.497Z,11.42
2023-01-19T03:22:45.517Z,11.40
2023-01-19T03:25:16.643Z,11.35
2023-01-19T03:27:51.767Z,11.37
2023-01-19T03:30:28.541Z,11.35
2023-01-19T03:33:05.167Z,11.33
2023-01-19T03:35:39.034Z,11.31
2023-01-19T03:38:15.143Z,11.30
2023-01-19T03:40:47.718Z,11.28
2023-01-19T03:43:22.668Z,11.19
2023-01-19T03:45:54.647Z,11.25
2023-01-19T03:48:25.649Z,11.23
2023-01-19T03:50:56.536Z,11.22
2023-01-19T03:53:27.019Z,11.23
2023-01-19T03:55:57.676Z,11.22
2023-01-19T03:58:31.095Z,11.20
2023-01-19T04:01:01.809Z,11.19
2023-01-19T04:03:32.411Z,11.17
2023-01-19T04:06:03.184Z,11.17
2023-01-19T04:08:33.702Z,11.18
2023-01-19T04:11:04.638Z,11.18
2023-01-19T04:13:38.712Z,11.17
2023-01-19T04:16:10.301Z,11.17
2023-01-19T04:18:41.209Z,11.16
2023-01-19T04:21:12.042Z,11.16
2023-01-19T04:23:44.622Z,11.14
2023-01-19T04:26:15.332Z,11.14
2023-01-19T04:28:48.464Z,11.17
2023-01-19T04:31:19.612Z,11.15
2023-01-19T04:33:50.542Z,11.15
2023-01-19T04:36:21.199Z,11.15
2023-01-19T04:38:51.917Z,11.16
2023-01-19T04:41:22.609Z,11.17
2023-01-19T04:43:55.839Z,11.17
2023-01-19T04:46:26.523Z,11.15
2023-01-19T04:48:57.580Z,11.05
2023-01-19T04:51:28.990Z,11.11
2023-01-19T04:54:00.216Z,11.07
2023-01-19T04:56:31.205Z,11.08
2023-01-19T04:59:04.600Z,11.09
2023-01-19T05:01:35.769Z,10.82
2023-01-19T05:04:08.042Z,10.24
2023-01-19T05:06:38.861Z,9.56
2023-01-19T05:09:09.454Z,9.02
2023-01-19T05:11:40.136Z,8.57
2023-01-19T05:14:13.431Z,8.23
2023-01-19T05:16:44.057Z,8.03
2023-01-19T05:19:14.518Z,7.85
2023-01-19T05:21:45.186Z,7.74
2023-01-19T05:24:16.088Z,7.74
2023-01-19T05:26:46.768Z,7.81
2023-01-19T05:29:20.043Z,7.90
2023-01-19T05:31:51.028Z,8.08
2023-01-19T05:34:21.940Z,8.28
2023-01-19T05:36:55.528Z,8.43
2023-01-19T05:39:27.026Z,8.79
2023-01-19T05:41:57.569Z,9.06
2023-01-19T05:44:30.780Z,9.29
2023-01-19T05:47:01.366Z,9.53
2023-01-19T05:49:31.911Z,9.73
2023-01-19T05:52:02.467Z,9.92
2023-01-19T05:54:33.051Z,10.08
2023-01-19T05:57:04.797Z,10.23
2023-01-19T05:59:38.016Z,10.36
2023-01-19T06:02:09.034Z,10.45
2023-01-19T06:04:39.574Z,10.54
2023-01-19T06:07:10.177Z,10.63
2023-01-19T06:09:40.771Z,10.69
2023-01-19T06:12:11.816Z,10.75
2023-01-19T06:14:45.091Z,10.80
2023-01-19T06:17:15.728Z,10.86
2023-01-19T06:19:46.210Z,10.90
2023-01-19T06:22:17.012Z,10.94
2023-01-19T06:24:47.754Z,10.98
2023-01-19T06:27:18.572Z,11.04
2023-01-19T06:29:51.708Z,11.09
2023-01-19T06:32:22.337Z,11.15
2023-01-19T06:34:54.082Z,11.20
2023-01-19T06:37:27.064Z,11.26
2023-01-19T06:39:57.632Z,11.32
2023-01-19T06:42:28.875Z,11.36
2023-01-19T06:45:02.046Z,11.41
2023-01-19T06:47:34.956Z,11.44
2023-01-19T06:50:05.502Z,11.46
2023-01-19T06:52:42.533Z,11.48
2023-01-19T06:55:14.778Z,11.47
2023-01-19T06:57:46.328Z,11.50
2023-01-19T07:00:21.705Z,11.51
2023-01-19T07:02:51.968Z,11.51
2023-01-19T07:05:22.403Z,11.51
2023-01-19T07:07:56.945Z,11.51
2023-01-19T07:11:25.921Z,11.52
2023-01-19T07:13:18.691Z,11.54
2023-01-19T07:15:51.895Z,11.57
2023-01-19T07:18:22.548Z,11.61
2023-01-19T07:20:53.076Z,11.62
2023-01-19T07:23:23.603Z,11.66
2023-01-19T07:25:54.163Z,11.69
2023-01-19T07:28:24.838Z,11.69
2023-01-19T07:30:58.855Z,11.70
2023-01-19T07:33:30.126Z,11.72
2023-01-19T07:36:00.614Z,11.72
2023-01-19T07:38:31.144Z,11.72
2023-01-19T07:41:04.995Z,11.73
2023-01-19T07:43:35.820Z,11.72
2023-01-19T07:46:10.192Z,11.73
2023-01-19T07:48:40.896Z,11.75
2023-01-19T07:51:18.070Z,11.76
2023-01-19T07:53:48.988Z,11.78
2023-01-19T07:56:19.891Z,11.80
2023-01-19T07:58:52.756Z,11.82
2023-01-19T08:01:26.207Z,11.87
2023-01-19T08:03:57.126Z,11.92
2023-01-19T08:06:33.507Z,11.98
2023-01-19T08:09:05.787Z,12.05
2023-01-19T08:11:37.047Z,12.10
2023-01-19T08:14:08.242Z,12.16
2023-01-19T08:16:41.374Z,12.25
2023-01-19T08:19:12.089Z,12.32
2023-01-19T08:21:42.686Z,12.43
2023-01-19T08:24:21.685Z,12.53
2023-01-19T08:26:53.029Z,12.59
2023-01-19T08:29:23.862Z,12.71
2023-01-19T08:31:59.163Z,12.81
2023-01-19T08:34:30.758Z,12.91
2023-01-19T08:37:01.988Z,12.98
2023-01-19T08:39:32.523Z,13.04
2023-01-19T08:42:03.092Z,13.01
2023-01-19T08:44:33.657Z,13.12
2023-01-19T08:47:07.836Z,13.16
2023-01-19T08:49:38.561Z,13.22
2023-01-19T08:52:09.145Z,13.27
2023-01-19T08:54:39.731Z,13.30
2023-01-19T08:57:10.222Z,13.37
2023-01-19T08:59:40.966Z,13.41
2023-01-19T09:02:14.997Z,13.43
2023-01-19T09:04:45.652Z,13.46
2023-01-19T09:07:16.152Z,13.51
2023-01-19T09:09:46.713Z,13.56
2023-01-19T09:12:17.189Z,13.62
2023-01-19T09:14:47.771Z,13.71
2023-01-19T09:17:21.017Z,13.83
2023-01-19T09:19:51.581Z,13.95
2023-01-19T09:22:22.170Z,14.09
2023-01-19T09:24:52.797Z,14.20
2023-01-19T09:27:23.517Z,14.33
2023-01-19T09:29:55.268Z,14.41
2023-01-19T09:32:28.456Z,14.50
2023-01-19T09:34:59.109Z,14.61
2023-01-19T09:37:29.511Z,14.73
2023-01-19T09:40:00.266Z,14.86
2023-01-19T09:42:36.688Z,15.02
2023-01-19T09:45:13.965Z,15.12
2023-01-19T09:47:48.790Z,15.20
2023-01-19T09:50:27.173Z,15.29
2023-01-19T09:53:07.585Z,15.39
2023-01-19T09:55:41.381Z,15.50
2023-01-19T09:58:18.524Z,15.61
2023-01-19T10:00:55.936Z,15.70
2023-01-19T10:03:29.150Z,15.77
2023-01-19T10:06:04.368Z,15.85
2023-01-19T10:08:43.221Z,15.90
2023-01-19T10:11:31.836Z,15.98
2023-01-19T10:14:14.559Z,16.01
2023-01-19T10:16:56.334Z,16.04
2023-01-19T10:19:33.050Z,16.06
2023-01-19T10:22:13.432Z,16.04
2023-01-19T10:24:47.305Z,16.06
2023-01-19T10:27:24.185Z,16.05
2023-01-19T10:29:55.278Z,16.03
2023-01-19T10:32:27.283Z,16.03
2023-01-19T10:35:02.388Z,16.07
2023-01-19T10:37:37.178Z,16.16
2023-01-19T10:40:23.729Z,16.25
2023-01-19T10:42:54.321Z,16.38
2023-01-19T10:45:29.566Z,16.55
2023-01-19T10:48:01.353Z,16.73
2023-01-19T10:50:37.372Z,16.89
2023-01-19T10:53:10.271Z,17.03
2023-01-19T10:55:43.324Z,17.11
2023-01-19T10:58:31.461Z,17.24
2023-01-19T11:01:17.134Z,17.37
2023-01-19T11:03:47.780Z,17.48
2023-01-19T11:06:30.256Z,17.63
2023-01-19T11:09:24.283Z,17.74
2023-01-19T11:11:57.063Z,17.87
2023-01-19T11:14:29.509Z,18.02
2023-01-19T11:17:01.750Z,18.09
2023-01-19T11:19:34.832Z,18.14
2023-01-19T11:22:22.534Z,18.19
2023-01-19T11:24:53.501Z,18.21
2023-01-19T11:27:25.166Z,18.23
2023-01-19T11:30:10.915Z,18.24
2023-01-19T11:32:43.220Z,18.24
2023-01-19T11:35:36.084Z,18.22
2023-01-19T11:38:23.380Z,18.24
2023-01-19T11:40:59.659Z,18.15
2023-01-19T11:43:48.237Z,18.05
2023-01-19T11:46:21.609Z,17.95
2023-01-19T11:49:02.249Z,17.84
2023-01-19T11:51:37.332Z,17.73
2023-01-19T11:54:18.706Z,17.64
2023-01-19T11:56:52.278Z,17.58
2023-01-19T11:59:24.314Z,17.59
2023-01-19T12:01:58.754Z,17.60
2023-01-19T12:04:34.272Z,17.60
2023-01-19T12:07:10.771Z,17.59
2023-01-19T12:09:49.971Z,17.59
2023-01-19T12:12:30.182Z,17.59
2023-01-19T12:15:05.498Z,17.58
2023-01-19T12:17:39.580Z,17.54
2023-01-19T12:20:22.057Z,17.52
2023-01-19T12:23:04.356Z,17.56
2023-01-19T12:25:53.319Z,17.55
2023-01-19T12:28:31.870Z,17.60
2023-01-19T12:31:04.678Z,17.63
2023-01-19T12:33:37.915Z,17.68
2023-01-19T12:36:14.394Z,17.62
2023-01-19T12:38:57.154Z,17.61
2023-01-19T12:41:36.497Z,17.61
2023-01-19T12:44:38.642Z,17.62
2023-01-19T12:47:24.728Z,17.63
2023-01-19T12:49:59.715Z,17.62
2023-01-19T12:52:34.761Z,17.60
2023-01-19T12:55:07.949Z,17.56
2023-01-19T12:57:43.816Z,17.50
2023-01-19T13:00:38.953Z,17.44
2023-01-19T13:03:39.878Z,17.34
2023-01-19T13:06:10.588Z,17.37
2023-01-19T13:08:59.366Z,17.24
2023-01-19T13:11:34.347Z,17.28
2023-01-19T13:14:37.815Z,17.21
2023-01-19T13:17:25.401Z,17.16
2023-01-19T13:20:21.380Z,17.11
2023-01-19T13:22:52.521Z,17.05
2023-01-19T13:25:33.903Z,17.01
2023-01-19T13:28:05.098Z,16.96
2023-01-19T13:30:38.360Z,16.91
2023-01-19T13:33:19.939Z,16.86
2023-01-19T13:35:57.360Z,16.80
2023-01-19T13:38:29.902Z,16.77
2023-01-19T13:41:05.052Z,16.72
2023-01-19T13:43:40.588Z,16.67
2023-01-19T13:46:14.757Z,16.63
2023-01-19T13:48:57.459Z,16.56
2023-01-19T13:51:28.132Z,16.50
2023-01-19T13:53:59.665Z,16.40
2023-01-19T13:56:31.053Z,16.36
2023-01-19T13:59:15.693Z,16.30
2023-01-19T14:01:51.244Z,16.26
2023-01-19T14:04:33.497Z,16.22
2023-01-19T14:07:06.129Z,16.18
2023-01-19T14:09:36.622Z,16.14
2023-01-19T14:12:15.007Z,16.10
2023-01-19T14:14:46.974Z,16.03
2023-01-19T14:17:30.048Z,15.97
2023-01-19T14:20:05.619Z,15.92
2023-01-19T14:22:44.125Z,15.89
2023-01-19T14:25:36.653Z,15.85
2023-01-19T14:28:32.088Z,15.80
2023-01-19T14:31:04.810Z,15.75
2023-01-19T14:33:47.177Z,15.69
2023-01-19T14:36:39.292Z,15.62
2023-01-19T14:39:23.529Z,15.58
2023-01-19T14:41:55.976Z,15.51
2023-01-19T14:44:31.892Z,15.47
2023-01-19T14:47:03.262Z,15.41
2023-01-19T14:49:37.180Z,15.34
2023-01-19T14:52:23.342Z,15.29
2023-01-19T14:54:54.773Z,15.23
2023-01-19T14:57:25.315Z,15.20
2023-01-19T14:59:56.068Z,15.11
2023-01-19T15:02:26.527Z,15.04
2023-01-19T15:04:58.093Z,14.97
2023-01-19T15:07:32.041Z,14.89
2023-01-19T15:10:02.928Z,14.83
2023-01-19T15:12:33.758Z,14.76
2023-01-19T15:15:04.799Z,14.66
2023-01-19T15:17:35.775Z,14.62
2023-01-19T15:20:06.622Z,14.54
2023-01-19T15:22:39.877Z,14.49
2023-01-19T15:25:11.041Z,14.45
2023-01-19T15:27:41.810Z,14.29
2023-01-19T15:30:24.527Z,13.62
2023-01-19T15:32:54.999Z,12.91
2023-01-19T15:35:27.072Z,12.28
2023-01-19T15:38:00.391Z,12.12
2023-01-19T15:40:31.036Z,12.02
2023-01-19T15:43:01.528Z,11.97
2023-01-19T15:45:38.747Z,12.07
2023-01-19T15:48:11.102Z,12.18
2023-01-19T15:50:45.177Z,12.12
2023-01-19T15:53:20.734Z,12.07
2023-01-19T15:55:55.646Z,12.19
2023-01-19T15:58:26.918Z,12.19
2023-01-19T16:00:58.490Z,12.06
2023-01-19T16:03:29.724Z,11.93
2023-01-19T16:06:03.671Z,11.75
2023-01-19T16:08:36.898Z,11.60
2023-01-19T16:11:09.094Z,11.68
2023-01-19T16:13:39.943Z,11.76
2023-01-19T16:16:16.797Z,11.89
2023-01-19T16:18:47.407Z,11.88
2023-01-19T16:21:18.379Z,11.71
2023-01-19T16:23:51.609Z,11.76
2023-01-19T16:26:34.768Z,11.82
2023-01-19T16:29:09.956Z,11.71
2023-01-19T16:31:41.162Z,11.64
2023-01-19T16:34:12.138Z,11.73
2023-01-19T16:36:44.590Z,11.70
2023-01-19T16:39:18.636Z,11.57
2023-01-19T16:41:49.355Z,11.64
2023-01-19T16:44:20.651Z,11.62
2023-01-19T16:46:52.622Z,11.44
2023-01-19T16:49:28.292Z,11.32
2023-01-19T16:51:59.997Z,11.37
2023-01-19T16:54:33.917Z,11.32
2023-01-19T16:57:05.050Z,11.20
2023-01-19T16:59:36.739Z,11.22
2023-01-19T17:02:08.015Z,11.30
2023-01-19T17:04:39.072Z,11.26
2023-01-19T17:07:09.938Z,11.09
2023-01-19T17:09:43.395Z,11.10
2023-01-19T17:12:14.033Z,11.24
2023-01-19T17:14:47.538Z,11.15
2023-01-19T17:17:18.506Z,10.97
2023-01-19T17:19:48.964Z,11.08
2023-01-19T17:22:19.743Z,11.16
2023-01-19T17:24:53.356Z,11.06
2023-01-19T17:27:24.221Z,11.07
2023-01-19T17:29:55.537Z,11.18
2023-01-19T17:32:26.312Z,11.12
2023-01-19T17:34:56.919Z,11.02
2023-01-19T17:37:28.058Z,11.10
2023-01-19T17:40:01.766Z,11.15
2023-01-19T17:42:34.591Z,11.17
2023-01-19T17:45:05.308Z,11.25
2023-01-19T17:47:36.160Z,11.23
2023-01-19T17:50:07.554Z,11.10
2023-01-19T17:52:38.510Z,11.09
2023-01-19T17:55:13.387Z,11.16
2023-01-19T17:57:44.832Z,10.88
2023-01-19T18:00:16.830Z,10.41
2023-01-19T18:02:47.915Z,9.88
2023-01-19T18:05:19.640Z,9.44
2023-01-19T18:07:50.957Z,9.10
2023-01-19T18:10:24.808Z,8.87
2023-01-19T18:12:55.359Z,8.74
2023-01-19T18:15:26.052Z,8.68
2023-01-19T18:17:56.773Z,8.63
2023-01-19T18:20:27.521Z,8.63
2023-01-19T18:22:58.345Z,8.66
2023-01-19T18:25:31.896Z,8.73
2023-01-19T18:28:02.603Z,8.75
2023-01-19T18:30:33.214Z,8.78
2023-01-19T18:33:04.560Z,8.84
2023-01-19T18:35:36.377Z,8.89
2023-01-19T18:38:07.483Z,8.96
2023-01-19T18:40:41.145Z,8.97
2023-01-19T18:43:12.048Z,8.93
2023-01-19T18:45:42.910Z,8.78
2023-01-19T18:48:13.764Z,8.61
2023-01-19T18:50:45.752Z,8.50
2023-01-19T18:53:17.936Z,8.50
2023-01-19T18:55:59.595Z,8.60
2023-01-19T18:58:32.909Z,8.75
2023-01-19T19:01:05.592Z,8.90
2023-01-19T19:03:38.552Z,9.01
2023-01-19T19:06:09.902Z,9.11
2023-01-19T19:08:43.114Z,9.06
2023-01-19T19:11:21.065Z,9.18
2023-01-19T19:13:58.016Z,9.06
2023-01-19T19:16:32.776Z,8.91
2023-01-19T19:19:07.361Z,8.80
2023-01-19T19:21:38.825Z,8.71
2023-01-19T19:24:11.628Z,8.71
2023-01-19T19:26:45.134Z,8.94
2023-01-19T19:29:16.886Z,9.20
2023-01-19T19:31:47.837Z,9.50
2023-01-19T19:34:18.801Z,9.78
2023-01-19T19:36:51.282Z,10.05
2023-01-19T19:39:23.317Z,10.30
2023-01-19T19:41:58.073Z,10.55
2023-01-19T19:44:29.261Z,10.76
2023-01-19T19:47:00.507Z,10.94
2023-01-19T19:49:32.883Z,11.09
2023-01-19T19:52:04.041Z,11.21
2023-01-19T19:54:37.471Z,11.33
2023-01-19T19:57:14.172Z,11.43
2023-01-19T19:59:45.371Z,11.54
2023-01-19T20:02:16.327Z,11.60
2023-01-19T20:04:47.251Z,11.68
2023-01-19T20:07:22.964Z,11.75
2023-01-19T20:09:56.743Z,11.77
2023-01-19T20:12:31.846Z,11.84
2023-01-19T20:15:02.978Z,11.88
2023-01-19T20:17:38.323Z,11.90
2023-01-19T20:20:13.021Z,11.94
2023-01-19T20:22:44.419Z,11.94
2023-01-19T20:25:15.097Z,11.99
2023-01-19T20:27:48.377Z,11.98
2023-01-19T20:30:19.616Z,11.98
2023-01-19T20:32:52.081Z,11.81
2023-01-19T20:35:22.904Z,11.81
2023-01-19T20:37:53.479Z,11.63
2023-01-19T20:40:24.365Z,11.58
2023-01-19T20:42:58.016Z,11.49
2023-01-19T20:45:28.747Z,11.50
2023-01-19T20:47:59.636Z,11.40
2023-01-19T20:50:31.054Z,11.40
2023-01-19T20:53:01.801Z,11.32
2023-01-19T20:55:33.365Z,11.36
2023-01-19T20:58:07.482Z,11.30
2023-01-19T21:00:38.734Z,11.32
2023-01-19T21:03:09.470Z,11.28
2023-01-19T21:05:40.460Z,11.30
2023-01-19T21:08:13.588Z,11.20
2023-01-19T21:10:45.083Z,11.09
2023-01-19T21:13:18.264Z,11.08
2023-01-19T21:15:49.011Z,10.97
2023-01-19T21:18:19.781Z,11.06
2023-01-19T21:20:51.487Z,11.01
2023-01-19T21:23:22.080Z,10.80
2023-01-19T21:25:53.692Z,10.79
2023-01-19T21:28:29.409Z,10.78
2023-01-19T21:31:00.453Z,10.85
2023-01-19T21:33:31.109Z,10.90
2023-01-19T21:36:04.139Z,10.82
2023-01-19T21:38:34.919Z,10.89
2023-01-19T21:41:10.044Z,10.82
2023-01-19T21:43:43.837Z,10.63
2023-01-19T21:46:17.332Z,10.65
2023-01-19T21:48:48.891Z,10.62
2023-01-19T21:51:19.615Z,10.71
2023-01-19T21:53:52.906Z,10.67
2023-01-19T21:56:23.912Z,10.64
2023-01-19T21:58:57.058Z,10.73
2023-01-19T22:01:28.104Z,10.80
2023-01-19T22:04:00.034Z,10.73
2023-01-19T22:06:31.261Z,10.84
2023-01-19T22:09:02.040Z,10.88
2023-01-19T22:11:33.287Z,10.91
2023-01-19T22:14:06.572Z,10.76
2023-01-19T22:16:37.387Z,10.42
2023-01-19T22:19:08.493Z,10.22
2023-01-19T22:21:39.602Z,10.10
2023-01-19T22:24:10.937Z,9.99
2023-01-19T22:26:41.929Z,9.92
2023-01-19T22:29:15.440Z,9.74
2023-01-19T22:31:47.187Z,9.54
2023-01-19T22:34:18.020Z,9.50
2023-01-19T22:36:48.599Z,9.41
2023-01-19T22:39:19.246Z,9.32
2023-01-19T22:41:50.245Z,9.41
2023-01-19T22:44:24.885Z,9.47
2023-01-19T22:46:58.449Z,9.60
2023-01-19T22:49:29.111Z,9.78
2023-01-19T22:51:59.760Z,9.96
2023-01-19T22:54:30.494Z,10.08
2023-01-19T22:57:01.977Z,10.10
2023-01-19T22:59:35.110Z,10.11
2023-01-19T23:02:05.839Z,10.17
2023-01-19T23:04:36.367Z,10.37
2023-01-19T23:07:09.469Z,10.50
2023-01-19T23:09:40.958Z,10.56
2023-01-19T23:12:11.565Z,10.75
2023-01-19T23:14:44.814Z,10.82
2023-01-19T23:17:15.395Z,10.82
2023-01-19T23:19:45.890Z,10.91
2023-01-19T23:22:16.570Z,10.99
2023-01-19T23:24:47.147Z,10.86
2023-01-19T23:27:17.884Z,10.49
2023-01-19T23:29:51.127Z,10.12
2023-01-19T23:32:21.739Z,9.80
2023-01-19T23:34:52.300Z,9.53
2023-01-19T23:37:22.834Z,9.31
2023-01-19T23:39:53.406Z,9.20
2023-01-19T23:42:24.075Z,9.15
2023-01-19T23:44:57.252Z,9.16
2023-01-19T23:47:28.175Z,9.17
2023-01-19T23:49:58.748Z,9.20
2023-01-19T23:52:29.460Z,9.28
2023-01-19T23:55:00.415Z,9.38
2023-01-19T23:57:31.019Z,9.52
